createdAt,value
2022-10-07T00:01:00.552Z,7.84
2022-10-07T00:03:34.093Z,7.81
2022-10-07T00:06:07.077Z,7.77
2022-10-07T00:08:38.385Z,7.74
2022-10-07T00:11:08.855Z,7.71
2022-10-07T00:13:40.679Z,7.67
2022-10-07T00:16:10.787Z,7.65
2022-10-07T00:18:38.628Z,7.63
2022-10-07T00:21:07.859Z,7.65
2022-10-07T00:23:35.333Z,7.66
2022-10-07T00:26:05.099Z,7.67
2022-10-07T00:28:33.914Z,7.67
2022-10-07T00:31:03.433Z,7.68
2022-10-07T00:33:36.369Z,7.69
2022-10-07T00:36:17.193Z,7.69
2022-10-07T00:38:44.960Z,7.66
2022-10-07T00:41:21.139Z,7.64
2022-10-07T00:43:48.649Z,7.62
2022-10-07T00:46:20.874Z,7.61
2022-10-07T00:48:48.766Z,7.60
2022-10-07T00:51:18.125Z,7.58
2022-10-07T00:53:50.344Z,7.55
2022-10-07T00:56:17.429Z,7.53
2022-10-07T00:58:47.507Z,7.51
2022-10-07T01:01:14.804Z,7.51
2022-10-07T01:03:42.339Z,7.51
2022-10-07T01:06:09.918Z,7.52
2022-10-07T01:08:38.297Z,7.53
2022-10-07T01:11:24.817Z,7.54
2022-10-07T01:14:01.517Z,7.54
2022-10-07T01:16:50.204Z,7.52
2022-10-07T01:19:33.181Z,7.50
2022-10-07T01:22:24.781Z,7.47
2022-10-07T01:25:12.788Z,7.45
2022-10-07T01:27:47.369Z,7.44
2022-10-07T01:30:17.704Z,7.42
2022-10-07T01:32:58.650Z,7.42
2022-10-07T01:35:33.634Z,7.41
2022-10-07T01:38:05.386Z,7.41
2022-10-07T01:40:38.038Z,7.41
2022-10-07T01:43:06.000Z,7.42
2022-10-07T01:45:37.867Z,7.42
2022-10-07T01:48:05.241Z,7.42
2022-10-07T01:50:33.909Z,7.42
2022-10-07T01:53:16.021Z,7.40
2022-10-07T01:56:12.590Z,7.38
2022-10-07T01:59:01.549Z,7.33
2022-10-07T02:02:03.804Z,7.29
2022-10-07T02:05:11.274Z,7.24
2022-10-07T02:08:15.850Z,7.20
2022-10-07T02:11:22.278Z,7.17
2022-10-07T02:14:14.326Z,7.14
2022-10-07T02:17:11.950Z,7.07
2022-10-07T02:19:47.814Z,7.02
2022-10-07T02:22:17.872Z,6.96
2022-10-07T02:24:47.184Z,6.92
2022-10-07T02:27:18.951Z,6.88
2022-10-07T02:29:52.940Z,6.85
2022-10-07T02:32:26.008Z,6.83
2022-10-07T02:34:59.586Z,6.80
2022-10-07T02:37:28.216Z,6.79
2022-10-07T02:39:56.896Z,6.78
2022-10-07T02:42:33.285Z,6.79
2022-10-07T02:45:15.097Z,6.78
2022-10-07T02:47:52.012Z,6.76
2022-10-07T02:50:24.870Z,6.77
2022-10-07T02:52:57.469Z,6.77
2022-10-07T02:55:27.716Z,6.77
2022-10-07T02:58:00.814Z,6.77
2022-10-07T03:00:31.127Z,6.76
2022-10-07T03:03:04.322Z,6.73
2022-10-07T03:05:37.347Z,6.70
2022-10-07T03:08:24.114Z,6.68
2022-10-07T03:10:56.295Z,6.66
2022-10-07T03:13:25.418Z,6.61
2022-10-07T03:15:57.020Z,6.56
2022-10-07T03:18:27.725Z,6.54
2022-10-07T03:21:21.550Z,6.52
2022-10-07T03:23:53.487Z,6.51
2022-10-07T03:26:21.792Z,6.50
2022-10-07T03:28:49.878Z,6.48
2022-10-07T03:31:17.168Z,6.46
2022-10-07T03:33:47.271Z,6.44
2022-10-07T03:36:14.702Z,6.39
2022-10-07T03:38:43.085Z,6.36
2022-10-07T03:41:11.595Z,6.32
2022-10-07T03:43:38.445Z,6.30
2022-10-07T03:46:05.760Z,6.28
2022-10-07T03:48:37.948Z,6.25
2022-10-07T03:51:04.824Z,6.22
2022-10-07T03:53:37.830Z,6.18
2022-10-07T03:56:05.693Z,6.16
2022-10-07T03:58:33.203Z,6.13
2022-10-07T04:01:11.606Z,6.10
2022-10-07T04:03:42.996Z,6.08
2022-10-07T04:06:10.143Z,6.05
2022-10-07T04:08:40.208Z,6.03
2022-10-07T04:11:07.779Z,6.01
2022-10-07T04:13:37.159Z,5.98
2022-10-07T04:16:09.606Z,5.95
2022-10-07T04:18:36.940Z,5.92
2022-10-07T04:21:06.526Z,5.91
2022-10-07T04:23:38.986Z,5.89
2022-10-07T04:26:11.026Z,5.87
2022-10-07T04:28:42.125Z,5.86
2022-10-07T04:31:31.673Z,5.84
2022-10-07T04:34:04.773Z,5.81
2022-10-07T04:36:35.178Z,5.80
2022-10-07T04:39:06.408Z,5.78
2022-10-07T04:41:40.969Z,5.75
2022-10-07T04:44:11.700Z,5.74
2022-10-07T04:46:44.031Z,5.72
2022-10-07T04:49:18.316Z,5.69
2022-10-07T04:51:53.110Z,5.68
2022-10-07T04:54:23.284Z,5.67
2022-10-07T04:56:53.075Z,5.65
2022-10-07T04:59:25.462Z,5.64
2022-10-07T05:01:57.504Z,5.64
2022-10-07T05:04:26.606Z,5.64
2022-10-07T05:06:55.021Z,5.63
2022-10-07T05:09:25.477Z,5.63
2022-10-07T05:11:56.080Z,5.63
2022-10-07T05:14:23.472Z,5.65
2022-10-07T05:16:54.545Z,5.69
2022-10-07T05:19:25.465Z,5.73
2022-10-07T05:21:55.345Z,5.78
2022-10-07T05:24:23.447Z,5.86
2022-10-07T05:26:50.813Z,5.95
2022-10-07T05:29:17.349Z,6.05
2022-10-07T05:31:49.289Z,6.18
2022-10-07T05:34:20.487Z,6.33
2022-10-07T05:36:47.485Z,6.49
2022-10-07T05:39:14.477Z,6.66
2022-10-07T05:41:48.607Z,6.82
2022-10-07T05:44:18.974Z,7.01
2022-10-07T05:46:47.226Z,7.21
2022-10-07T05:49:16.062Z,7.41
2022-10-07T05:51:43.506Z,7.61
2022-10-07T05:54:11.612Z,7.81
2022-10-07T05:56:41.660Z,8.01
2022-10-07T05:59:09.278Z,8.19
2022-10-07T06:01:36.366Z,8.38
2022-10-07T06:04:10.846Z,8.59
2022-10-07T06:06:39.240Z,8.79
2022-10-07T06:09:27.072Z,8.99
2022-10-07T06:12:12.594Z,9.20
2022-10-07T06:14:41.433Z,9.43
2022-10-07T06:17:09.214Z,9.64
2022-10-07T06:19:39.761Z,9.83
2022-10-07T06:22:07.175Z,10.04
2022-10-07T06:24:34.879Z,10.19
2022-10-07T06:27:02.880Z,10.35
2022-10-07T06:29:29.801Z,10.53
2022-10-07T06:31:56.543Z,10.72
2022-10-07T06:34:23.174Z,10.87
2022-10-07T06:36:55.346Z,11.02
2022-10-07T06:39:22.871Z,11.17
2022-10-07T06:41:54.517Z,11.31
2022-10-07T06:44:47.823Z,11.48
2022-10-07T06:47:16.909Z,11.62
2022-10-07T06:49:46.638Z,11.72
2022-10-07T06:52:13.220Z,11.82
2022-10-07T06:54:42.025Z,11.93
2022-10-07T06:57:33.112Z,12.04
2022-10-07T06:59:55.704Z,12.14
2022-10-07T07:02:24.960Z,12.25
2022-10-07T07:04:57.293Z,12.33
2022-10-07T07:07:27.868Z,12.41
2022-10-07T07:09:55.324Z,12.48
2022-10-07T07:12:24.852Z,12.55
2022-10-07T07:14:51.999Z,12.59
2022-10-07T07:17:20.461Z,12.66
2022-10-07T07:19:47.375Z,12.74
2022-10-07T07:22:15.868Z,12.83
2022-10-07T07:24:43.265Z,12.93
2022-10-07T07:27:11.600Z,13.02
2022-10-07T07:29:39.359Z,13.12
2022-10-07T07:32:07.696Z,13.22
2022-10-07T07:34:38.825Z,13.31
2022-10-07T07:37:06.596Z,13.41
2022-10-07T07:39:39.888Z,13.49
2022-10-07T07:42:13.353Z,13.58
2022-10-07T07:44:44.674Z,13.67
2022-10-07T07:47:16.622Z,13.75
2022-10-07T07:49:44.303Z,13.82
2022-10-07T07:52:14.657Z,13.90
2022-10-07T07:54:47.368Z,14.00
2022-10-07T07:57:14.942Z,14.11
2022-10-07T07:59:51.002Z,14.22
2022-10-07T08:02:27.151Z,14.33
2022-10-07T08:04:55.645Z,14.47
2022-10-07T08:07:25.378Z,14.62
2022-10-07T08:09:52.020Z,14.74
2022-10-07T08:12:20.752Z,14.85
2022-10-07T08:14:47.706Z,14.98
2022-10-07T08:17:17.414Z,15.10
2022-10-07T08:19:44.585Z,15.32
2022-10-07T08:22:17.125Z,15.52
2022-10-07T08:24:49.135Z,15.69
2022-10-07T08:27:15.963Z,15.85
2022-10-07T08:29:42.913Z,15.99
2022-10-07T08:32:12.233Z,16.13
2022-10-07T08:34:39.068Z,16.25
2022-10-07T08:37:08.088Z,16.49
2022-10-07T08:39:35.370Z,16.60
2022-10-07T08:42:22.128Z,16.58
2022-10-07T08:44:50.128Z,16.62
2022-10-07T08:47:34.402Z,16.80
2022-10-07T08:50:23.239Z,16.96
2022-10-07T08:52:52.287Z,17.12
2022-10-07T08:55:28.445Z,17.27
2022-10-07T08:58:05.003Z,17.37
2022-10-07T09:00:50.344Z,17.33
2022-10-07T09:04:02.187Z,17.32
2022-10-07T09:06:56.362Z,17.39
2022-10-07T09:09:29.690Z,17.45
2022-10-07T09:11:59.999Z,17.53
2022-10-07T09:14:43.951Z,17.59
2022-10-07T09:17:21.657Z,17.62
2022-10-07T09:19:55.695Z,17.72
2022-10-07T09:22:35.526Z,17.83
2022-10-07T09:25:13.324Z,17.93
2022-10-07T09:27:42.055Z,18.06
2022-10-07T09:30:12.387Z,18.20
2022-10-07T09:32:45.375Z,18.30
2022-10-07T09:35:16.512Z,18.43
2022-10-07T09:38:07.669Z,18.54
2022-10-07T09:41:03.741Z,18.63
2022-10-07T09:43:34.237Z,18.71
2022-10-07T09:46:01.359Z,18.83
2022-10-07T09:48:32.738Z,18.92
2022-10-07T09:51:25.190Z,19.03
2022-10-07T09:54:02.770Z,19.14
2022-10-07T09:56:32.922Z,19.15
2022-10-07T09:59:21.643Z,19.10
2022-10-07T10:02:01.041Z,19.14
2022-10-07T10:04:37.742Z,19.14
2022-10-07T10:07:18.877Z,19.22
2022-10-07T10:09:56.352Z,19.36
2022-10-07T10:12:24.940Z,19.53
2022-10-07T10:14:58.722Z,19.68
2022-10-07T10:17:39.353Z,19.83
2022-10-07T10:20:32.167Z,19.97
2022-10-07T10:23:02.294Z,20.08
2022-10-07T10:26:02.601Z,20.18
2022-10-07T10:28:56.600Z,20.26
2022-10-07T10:31:30.236Z,20.33
2022-10-07T10:34:01.963Z,20.44
2022-10-07T10:36:36.446Z,20.52
2022-10-07T10:39:14.642Z,20.52
2022-10-07T10:41:55.906Z,20.54
2022-10-07T10:44:50.429Z,20.60
2022-10-07T10:47:35.438Z,20.66
2022-10-07T10:50:21.380Z,20.64
2022-10-07T10:53:14.267Z,20.61
2022-10-07T10:55:58.392Z,20.62
2022-10-07T10:58:44.233Z,20.63
2022-10-07T11:01:35.929Z,20.68
2022-10-07T11:04:28.198Z,20.69
2022-10-07T11:07:02.664Z,20.64
2022-10-07T11:09:52.821Z,20.56
2022-10-07T11:12:37.629Z,20.56
2022-10-07T11:15:34.999Z,20.63
2022-10-07T11:18:11.421Z,20.74
2022-10-07T11:20:47.970Z,20.82
2022-10-07T11:23:42.335Z,20.88
2022-10-07T11:26:32.375Z,20.96
2022-10-07T11:29:17.745Z,20.99
2022-10-07T11:31:52.186Z,21.05
2022-10-07T11:34:29.996Z,21.08
2022-10-07T11:37:02.465Z,21.13
2022-10-07T11:39:29.655Z,21.16
2022-10-07T11:42:02.641Z,21.18
2022-10-07T11:44:36.108Z,21.24
2022-10-07T11:47:06.380Z,21.33
2022-10-07T11:49:47.020Z,21.37
2022-10-07T11:52:26.255Z,21.40
2022-10-07T11:55:06.460Z,21.44
2022-10-07T11:57:57.329Z,21.50
2022-10-07T12:00:50.505Z,21.56
2022-10-07T12:03:18.462Z,21.60
2022-10-07T12:06:05.923Z,21.62
2022-10-07T12:08:44.363Z,21.64
2022-10-07T12:11:10.910Z,21.68
2022-10-07T12:13:46.767Z,21.72
2022-10-07T12:16:22.627Z,21.76
2022-10-07T12:19:08.401Z,21.73
2022-10-07T12:22:05.067Z,21.71
2022-10-07T12:24:35.465Z,21.68
2022-10-07T12:27:26.829Z,21.70
2022-10-07T12:30:00.237Z,21.73
2022-10-07T12:32:40.173Z,21.77
2022-10-07T12:35:40.796Z,21.73
2022-10-07T12:38:19.548Z,21.69
2022-10-07T12:40:53.150Z,21.71
2022-10-07T12:43:38.505Z,21.77
2022-10-07T12:46:15.228Z,21.80
2022-10-07T12:48:47.546Z,21.83
2022-10-07T12:51:28.188Z,21.83
2022-10-07T12:53:59.235Z,21.86
2022-10-07T12:56:29.248Z,21.89
2022-10-07T12:59:31.733Z,21.91
2022-10-07T13:02:19.774Z,21.93
2022-10-07T13:05:09.871Z,21.91
2022-10-07T13:07:57.955Z,21.90
2022-10-07T13:10:43.436Z,21.89
2022-10-07T13:13:43.952Z,21.91
2022-10-07T13:16:37.962Z,21.89
2022-10-07T13:19:18.535Z,21.89
2022-10-07T13:21:58.148Z,21.87
2022-10-07T13:24:27.698Z,21.89
2022-10-07T13:26:57.146Z,21.91
2022-10-07T13:29:33.609Z,21.89
2022-10-07T13:32:05.594Z,21.83
2022-10-07T13:34:34.113Z,21.82
2022-10-07T13:37:04.108Z,21.82
2022-10-07T13:39:30.791Z,21.78
2022-10-07T13:41:59.747Z,21.77
2022-10-07T13:44:30.825Z,21.77
2022-10-07T13:47:00.746Z,21.76
2022-10-07T13:49:32.508Z,21.77
2022-10-07T13:52:05.772Z,21.78
2022-10-07T13:54:36.739Z,21.79
2022-10-07T13:57:10.183Z,21.80
2022-10-07T13:59:40.047Z,21.82
2022-10-07T14:02:11.022Z,21.80
2022-10-07T14:04:57.935Z,21.77
2022-10-07T14:07:28.163Z,21.76
2022-10-07T14:09:58.601Z,21.74
2022-10-07T14:12:33.010Z,21.73
2022-10-07T14:15:28.718Z,21.69
2022-10-07T14:18:14.331Z,21.65
2022-10-07T14:20:51.866Z,21.61
2022-10-07T14:23:30.754Z,21.59
2022-10-07T14:26:04.776Z,21.56
2022-10-07T14:28:34.534Z,21.52
2022-10-07T14:31:23.316Z,21.48
2022-10-07T14:34:17.270Z,21.43
2022-10-07T14:37:06.006Z,21.35
2022-10-07T14:39:44.299Z,21.26
2022-10-07T14:42:23.158Z,21.19
2022-10-07T14:44:55.809Z,21.12
2022-10-07T14:47:24.994Z,21.01
2022-10-07T14:49:58.406Z,20.90
2022-10-07T14:52:31.009Z,20.80
2022-10-07T14:55:21.667Z,20.75
2022-10-07T14:57:50.034Z,20.68
2022-10-07T15:00:45.530Z,20.62
2022-10-07T15:03:13.418Z,20.56
2022-10-07T15:05:40.605Z,20.52
2022-10-07T15:08:11.389Z,20.48
2022-10-07T15:10:42.978Z,20.44
2022-10-07T15:13:13.273Z,20.41
2022-10-07T15:15:44.177Z,20.38
2022-10-07T15:18:11.770Z,20.34
2022-10-07T15:20:40.003Z,20.30
2022-10-07T15:23:08.420Z,20.24
2022-10-07T15:25:42.018Z,20.17
2022-10-07T15:28:12.763Z,20.10
2022-10-07T15:30:47.147Z,20.01
2022-10-07T15:33:14.594Z,19.94
2022-10-07T15:35:43.439Z,19.86
2022-10-07T15:38:10.291Z,19.80
2022-10-07T15:40:55.860Z,19.74
2022-10-07T15:43:25.049Z,19.68
2022-10-07T15:45:55.995Z,19.63
2022-10-07T15:48:22.612Z,19.58
2022-10-07T15:50:52.629Z,19.54
2022-10-07T15:53:21.593Z,19.50
2022-10-07T15:55:57.629Z,19.44
2022-10-07T15:58:29.857Z,19.37
2022-10-07T16:01:00.488Z,19.30
2022-10-07T16:03:40.628Z,19.23
2022-10-07T16:06:15.959Z,19.17
2022-10-07T16:08:43.941Z,19.11
2022-10-07T16:11:15.269Z,19.05
2022-10-07T16:13:46.526Z,18.97
2022-10-07T16:16:22.886Z,18.88
2022-10-07T16:18:56.716Z,18.81
2022-10-07T16:21:32.156Z,18.76
2022-10-07T16:24:07.348Z,18.70
2022-10-07T16:26:36.837Z,18.64
2022-10-07T16:29:30.670Z,18.59
2022-10-07T16:31:59.455Z,18.53
2022-10-07T16:34:28.297Z,18.48
2022-10-07T16:36:58.008Z,18.43
2022-10-07T16:39:25.431Z,18.38
2022-10-07T16:41:52.448Z,18.32
2022-10-07T16:44:19.944Z,18.28
2022-10-07T16:46:49.054Z,18.24
2022-10-07T16:49:19.974Z,18.19
2022-10-07T16:51:46.983Z,18.15
2022-10-07T16:54:16.586Z,18.11
2022-10-07T16:56:50.432Z,18.07
2022-10-07T16:59:23.006Z,18.02
2022-10-07T17:01:56.118Z,17.97
2022-10-07T17:04:29.864Z,17.92
2022-10-07T17:06:57.655Z,17.88
2022-10-07T17:09:25.112Z,17.83
2022-10-07T17:11:51.651Z,17.78
2022-10-07T17:14:22.434Z,17.69
2022-10-07T17:16:52.103Z,17.60
2022-10-07T17:19:21.573Z,17.54
2022-10-07T17:21:52.438Z,17.48
2022-10-07T17:24:22.425Z,17.42
2022-10-07T17:26:51.900Z,17.36
2022-10-07T17:29:21.268Z,17.32
2022-10-07T17:31:50.878Z,17.27
2022-10-07T17:34:21.754Z,17.21
2022-10-07T17:36:49.641Z,17.15
2022-10-07T17:39:21.789Z,17.09
2022-10-07T17:41:49.895Z,17.04
2022-10-07T17:44:17.351Z,16.99
2022-10-07T17:46:46.335Z,16.94
2022-10-07T17:49:13.417Z,16.89
2022-10-07T17:51:43.743Z,16.84
2022-10-07T17:54:14.143Z,16.80
2022-10-07T17:56:43.931Z,16.74
2022-10-07T17:59:14.724Z,16.68
2022-10-07T18:01:42.121Z,16.62
2022-10-07T18:04:17.021Z,16.54
2022-10-07T18:06:46.522Z,16.47
2022-10-07T18:09:17.576Z,16.41
2022-10-07T18:12:03.881Z,16.35
2022-10-07T18:14:53.465Z,16.27
2022-10-07T18:17:24.263Z,16.21
2022-10-07T18:19:54.862Z,16.17
2022-10-07T18:22:23.758Z,16.13
2022-10-07T18:24:56.502Z,16.10
2022-10-07T18:27:26.525Z,16.06
2022-10-07T18:29:54.608Z,16.03
2022-10-07T18:32:26.322Z,16.00
2022-10-07T18:34:54.235Z,15.95
2022-10-07T18:37:23.801Z,15.92
2022-10-07T18:39:53.663Z,15.89
2022-10-07T18:42:20.479Z,15.86
2022-10-07T18:44:50.489Z,15.82
2022-10-07T18:47:20.003Z,15.81
2022-10-07T18:49:46.791Z,15.80
2022-10-07T18:52:13.805Z,15.79
2022-10-07T18:54:41.147Z,15.77
2022-10-07T18:57:08.421Z,15.77
2022-10-07T18:59:35.006Z,15.76
2022-10-07T19:02:03.342Z,15.77
2022-10-07T19:04:38.545Z,15.77
2022-10-07T19:07:05.590Z,15.77
2022-10-07T19:09:35.706Z,15.79
2022-10-07T19:12:02.797Z,15.80
2022-10-07T19:14:31.570Z,15.81
2022-10-07T19:17:02.693Z,15.83
2022-10-07T19:19:33.422Z,15.85
2022-10-07T19:22:00.294Z,15.86
2022-10-07T19:24:45.782Z,15.88
2022-10-07T19:27:13.941Z,15.89
2022-10-07T19:29:40.694Z,15.90
2022-10-07T19:32:08.847Z,15.89
2022-10-07T19:34:38.419Z,15.90
2022-10-07T19:37:07.911Z,15.91
2022-10-07T19:39:44.620Z,15.93
2022-10-07T19:42:12.532Z,15.94
2022-10-07T19:44:42.692Z,15.95
2022-10-07T19:47:09.486Z,15.95
2022-10-07T19:49:38.152Z,15.98
2022-10-07T19:52:08.305Z,15.98
2022-10-07T19:54:39.294Z,15.96
2022-10-07T19:57:06.275Z,15.92
2022-10-07T19:59:34.506Z,15.90
2022-10-07T20:02:02.557Z,15.87
2022-10-07T20:04:30.236Z,15.83
2022-10-07T20:07:01.011Z,15.80
2022-10-07T20:09:27.599Z,15.76
2022-10-07T20:11:55.823Z,15.72
2022-10-07T20:14:23.167Z,15.68
2022-10-07T20:16:50.706Z,15.65
2022-10-07T20:19:19.035Z,15.61
2022-10-07T20:21:45.761Z,15.58
2022-10-07T20:24:16.171Z,15.55
2022-10-07T20:26:43.665Z,15.51
2022-10-07T20:29:56.981Z,15.47
2022-10-07T20:32:26.998Z,15.44
2022-10-07T20:34:55.634Z,15.42
2022-10-07T20:37:23.079Z,15.40
2022-10-07T20:40:09.007Z,15.39
2022-10-07T20:42:35.653Z,15.39
2022-10-07T20:45:06.194Z,15.38
2022-10-07T20:47:35.098Z,15.37
2022-10-07T20:50:03.164Z,15.37
2022-10-07T20:52:34.073Z,15.38
2022-10-07T20:55:04.398Z,15.41
2022-10-07T20:57:37.708Z,15.43
2022-10-07T21:00:15.116Z,15.43
2022-10-07T21:02:43.553Z,15.45
2022-10-07T21:05:10.741Z,15.47
2022-10-07T21:07:39.705Z,15.54
2022-10-07T21:10:06.368Z,15.60
2022-10-07T21:12:33.324Z,15.65
2022-10-07T21:15:06.675Z,15.68
2022-10-07T21:17:35.318Z,15.68
2022-10-07T21:20:01.839Z,15.66
2022-10-07T21:22:28.913Z,15.65
2022-10-07T21:24:58.229Z,15.64
2022-10-07T21:27:24.890Z,15.63
2022-10-07T21:29:52.344Z,15.62
2022-10-07T21:32:19.540Z,15.61
2022-10-07T21:34:47.268Z,15.62
2022-10-07T21:37:18.158Z,15.61
2022-10-07T21:39:45.733Z,15.60
2022-10-07T21:42:15.300Z,15.59
2022-10-07T21:44:42.786Z,15.58
2022-10-07T21:47:10.135Z,15.56
2022-10-07T21:49:37.888Z,15.54
2022-10-07T21:52:05.406Z,15.50
2022-10-07T21:54:32.800Z,15.47
2022-10-07T21:57:00.568Z,15.44
2022-10-07T21:59:30.414Z,15.41
2022-10-07T22:01:58.027Z,15.38
2022-10-07T22:04:40.305Z,15.34
2022-10-07T22:14:19.080Z,15.20
2022-10-07T22:16:55.844Z,15.16
2022-10-07T22:19:52.296Z,15.12
2022-10-07T22:22:28.930Z,15.09
2022-10-07T22:24:58.152Z,15.05
2022-10-07T22:27:25.967Z,15.01
2022-10-07T22:29:58.107Z,14.97
2022-10-07T22:32:24.595Z,14.93
2022-10-07T22:35:10.295Z,14.89
2022-10-07T22:37:37.741Z,14.84
2022-10-07T22:40:06.748Z,14.80
2022-10-07T22:42:36.133Z,14.77
2022-10-07T22:45:05.824Z,14.74
2022-10-07T22:47:39.987Z,14.69
2022-10-07T22:50:07.954Z,14.64
2022-10-07T22:52:36.423Z,14.60
2022-10-07T22:55:11.259Z,14.56
2022-10-07T22:57:38.098Z,14.52
2022-10-07T23:00:10.034Z,14.50
2022-10-07T23:02:37.857Z,14.47
2022-10-07T23:05:06.085Z,14.44
2022-10-07T23:07:32.775Z,14.43
2022-10-07T23:09:59.344Z,14.41
2022-10-07T23:12:26.268Z,14.38
2022-10-07T23:14:55.046Z,14.37
2022-10-07T23:17:22.183Z,14.36
2022-10-07T23:19:48.620Z,14.36
2022-10-07T23:22:15.311Z,14.34
2022-10-07T23:24:41.734Z,14.33
2022-10-07T23:27:10.252Z,14.32
2022-10-07T23:29:37.175Z,14.33
2022-10-07T23:32:06.407Z,14.33
2022-10-07T23:34:32.894Z,14.33
2022-10-07T23:36:59.993Z,14.31
2022-10-07T23:39:26.995Z,14.30
2022-10-07T23:41:54.354Z,14.32
2022-10-07T23:44:22.509Z,14.35
2022-10-07T23:46:51.060Z,14.37
2022-10-07T23:49:17.588Z,14.39
2022-10-07T23:51:46.848Z,14.40
2022-10-07T23:54:15.076Z,14.41
2022-10-07T23:56:42.477Z,14.43
2022-10-07T23:59:08.908Z,14.44
